Golden Valley, Arizona
Current Conditions -  °F | °C
As of 7:51 AM on Thursday 18 Dec 2014 (Local Time) from KIGM Reporting Station
Overcast Overcast  
Wind Chill: 36°   Ceiling: 2900
Heat Index: 39°   Visibility: 10mi
Dew Point: 37°   Wind: 5mph
Humidity: 93%   Direction: 130°SE
Pressure: 30.13"   Gusts: NA
Location:  35.22°N, 114.22°W
Report Text: KIGM 181451Z AUTO 13004KT 10SM BKN029 OVC044 04/03 A3013 RMK AO2 RAE31 SLP183 P0000 60001 T00390028 53012 $
Loading
Personal Weather Stations






























Interactive Weather Map New forecast layout! Learn more

10-Day Weather Forecast

Advertisements
Track Severe Weather on mobile